Time;durP1;ratioP1;P1;durP2;ratioP2;P2;SDS_P1;SDS_P2;PMS_P1;PMS_P2;Temp;Humidity;BMP_temperature;BMP_pressure;BME280_temperature;BME280_humidity;BME280_pressure;Samples;Min_cycle;Max_cycle;Signal;HPM_P1;HPM_P2
2021/06/19 00:00:59;;;;;;;17.83;4.95;;;25.20;99.90;;;;;;5032696;28;20025;-73
2021/06/19 00:03:24;;;;;;;25.48;4.40;;;25.30;99.90;;;;;;5033426;28;20380;-73
2021/06/19 00:05:50;;;;;;;11.45;2.83;;;25.30;99.90;;;;;;5033632;28;20021;-74
2021/06/19 00:08:16;;;;;;;7.80;2.30;;;25.40;99.90;;;;;;5032889;28;20075;-74
2021/06/19 00:10:42;;;;;;;8.23;2.75;;;25.40;99.90;;;;;;5032911;28;20401;-74
2021/06/19 00:13:08;;;;;;;5.50;2.92;;;25.30;99.90;;;;;;5033077;28;20026;-74
2021/06/19 00:15:35;;;;;;;11.07;3.03;;;25.30;99.90;;;;;;5031304;28;20429;-73
2021/06/19 00:18:00;;;;;;;8.60;2.80;;;25.30;99.90;;;;;;5032436;28;20400;-73
2021/06/19 00:20:27;;;;;;;9.75;3.65;;;25.30;99.90;;;;;;5032417;28;20025;-73
2021/06/19 00:22:54;;;;;;;10.43;2.85;;;25.40;99.90;;;;;;5032850;28;20017;-73
2021/06/19 00:25:22;;;;;;;7.57;2.90;;;25.40;99.90;;;;;;5031780;28;20490;-72
2021/06/19 00:27:48;;;;;;;6.43;2.60;;;25.50;99.90;;;;;;5032551;28;20044;-75
2021/06/19 00:30:15;;;;;;;14.70;3.40;;;25.50;99.90;;;;;;5035020;28;20037;-73
2021/06/19 00:32:41;;;;;;;16.67;4.43;;;25.40;99.90;;;;;;5039419;28;20025;-72
2021/06/19 00:35:08;;;;;;;16.25;4.10;;;25.20;99.90;;;;;;5037767;28;20049;-74
2021/06/19 00:37:35;;;;;;;14.60;3.72;;;25.00;99.90;;;;;;5028947;28;20025;-74
2021/06/19 00:40:04;;;;;;;8.63;3.75;;;24.80;99.90;;;;;;5032111;28;20485;-74
2021/06/19 00:42:30;;;;;;;14.85;4.13;;;24.70;99.90;;;;;;5034360;28;20025;-74
2021/06/19 00:44:56;;;;;;;10.07;3.45;;;24.50;99.90;;;;;;5039820;28;20025;-73
2021/06/19 00:47:22;;;;;;;10.77;3.35;;;24.60;99.90;;;;;;5039283;28;20095;-73
2021/06/19 00:49:48;;;;;;;9.32;3.83;;;24.70;99.90;;;;;;5039038;28;20401;-73
2021/06/19 00:52:14;;;;;;;12.70;3.10;;;24.70;99.90;;;;;;5039189;28;20025;-73
2021/06/19 00:54:39;;;;;;;9.10;2.88;;;24.70;99.90;;;;;;5038531;28;20036;-73
2021/06/19 00:57:08;;;;;;;12.93;3.60;;;24.70;99.90;;;;;;5039162;28;20413;-72
2021/06/19 00:59:35;;;;;;;9.73;3.00;;;24.80;99.90;;;;;;5038711;28;20029;-74
2021/06/19 01:02:00;;;;;;;14.70;3.17;;;24.80;99.90;;;;;;5038710;28;20032;-74
2021/06/19 01:04:26;;;;;;;9.30;4.15;;;24.90;99.90;;;;;;5039109;28;20041;-74
2021/06/19 01:06:52;;;;;;;14.98;4.55;;;24.70;99.90;;;;;;5037881;28;20028;-74
2021/06/19 01:09:17;;;;;;;20.85;4.85;;;24.50;99.90;;;;;;5038700;28;20059;-73
2021/06/19 01:11:43;;;;;;;7.18;3.30;;;24.40;99.90;;;;;;5038847;28;20484;-73
2021/06/19 01:14:09;;;;;;;10.30;3.55;;;24.30;99.90;;;;;;5038572;28;20029;-73
2021/06/19 01:16:35;;;;;;;6.70;3.30;;;24.30;1.00;;;;;;5038776;28;20485;-74
2021/06/19 01:19:01;;;;;;;18.15;3.95;;;24.20;1.00;;;;;;5038683;28;20030;-73
2021/06/19 01:21:29;;;;;;;11.05;3.45;;;24.10;1.00;;;;;;5038695;28;20079;-74
2021/06/19 01:23:56;;;;;;;14.20;3.88;;;24.10;1.00;;;;;;5038406;28;20092;-74
2021/06/19 01:26:24;;;;;;;9.07;3.88;;;24.10;1.00;;;;;;5038551;28;20052;-73
2021/06/19 01:28:51;;;;;;;18.92;5.28;;;24.10;1.00;;;;;;5038541;28;20024;-74
2021/06/19 01:31:17;;;;;;;12.15;3.72;;;24.10;1.00;;;;;;5038753;28;20095;-73
2021/06/19 01:33:45;;;;;;;14.65;3.92;;;24.10;1.00;;;;;;5037422;28;20052;-73
2021/06/19 01:36:11;;;;;;;11.98;3.97;;;24.20;99.90;;;;;;5034325;28;20021;-74
2021/06/19 01:38:45;;;;;;;16.13;3.17;;;24.30;99.90;;;;;;5038219;28;20052;-74
2021/06/19 01:41:16;;;;;;;11.20;4.28;;;24.10;99.90;;;;;;5037999;28;20143;-74
2021/06/19 01:43:44;;;;;;;12.90;4.78;;;23.90;1.00;;;;;;5038338;28;20049;-74
2021/06/19 01:46:11;;;;;;;10.57;4.05;;;23.80;15.90;;;;;;5036864;28;20017;-73
2021/06/19 01:48:37;;;;;;;9.52;3.42;;;23.80;27.80;;;;;;5038164;28;20505;-73
2021/06/19 01:51:02;;;;;;;7.68;3.95;;;23.70;99.90;;;;;;5040943;28;20036;-74
2021/06/19 01:53:28;;;;;;;10.68;4.30;;;23.60;99.90;;;;;;5036463;28;20092;-73
2021/06/19 01:55:54;;;;;;;12.55;4.40;;;23.50;99.90;;;;;;5034672;28;20109;-73
2021/06/19 01:58:19;;;;;;;9.10;3.90;;;23.50;99.90;;;;;;5034911;28;20026;-74
2021/06/19 02:00:45;;;;;;;11.43;3.50;;;23.50;99.90;;;;;;5033329;28;20215;-74
2021/06/19 02:03:11;;;;;;;12.90;4.78;;;23.50;99.90;;;;;;5034997;28;20026;-74
2021/06/19 02:05:37;;;;;;;11.70;4.18;;;23.50;99.90;;;;;;5034564;28;20802;-74
2021/06/19 02:08:05;;;;;;;8.63;3.80;;;23.60;99.90;;;;;;5034695;28;20083;-73
2021/06/19 02:10:36;;;;;;;8.68;3.17;;;23.50;1.00;;;;;;5034814;28;20025;-72
2021/06/19 02:13:03;;;;;;;8.98;3.72;;;23.50;1.00;;;;;;5033514;28;20026;-72
2021/06/19 02:15:30;;;;;;;12.35;3.78;;;23.40;1.00;;;;;;5035039;28;20030;-74
2021/06/19 02:17:56;;;;;;;9.57;3.97;;;23.30;1.00;;;;;;5034617;28;20437;-73
2021/06/19 02:20:24;;;;;;;9.68;4.55;;;23.40;99.90;;;;;;5035102;28;20025;-74
2021/06/19 02:22:50;;;;;;;9.50;4.35;;;23.30;99.90;;;;;;5034281;28;20029;-73
2021/06/19 02:25:18;;;;;;;17.70;4.30;;;23.20;99.90;;;;;;5034103;28;20109;-73
2021/06/19 02:28:14;;;;;;;9.75;3.90;;;23.20;1.00;;;;;;5034429;28;20105;-74
2021/06/19 02:30:42;;;;;;;8.23;3.63;;;23.10;1.00;;;;;;5029973;28;20057;-73
2021/06/19 02:33:09;;;;;;;12.00;3.97;;;23.10;99.90;;;;;;5032622;28;20037;-74
2021/06/19 02:35:38;;;;;;;10.80;4.97;;;23.30;1.00;;;;;;5027582;28;20481;-74
2021/06/19 02:38:05;;;;;;;13.13;4.88;;;23.50;99.90;;;;;;5027652;28;20363;-73
2021/06/19 02:40:32;;;;;;;16.73;3.55;;;23.30;1.00;;;;;;5032916;28;20025;-73
2021/06/19 02:42:58;;;;;;;15.80;4.50;;;23.10;99.90;;;;;;5033919;28;20032;-73
2021/06/19 02:45:24;;;;;;;17.50;4.40;;;23.00;99.90;;;;;;5033669;28;20025;-74
2021/06/19 02:47:52;;;;;;;9.63;4.75;;;23.00;99.90;;;;;;5034178;28;20040;-74
2021/06/19 02:50:20;;;;;;;20.25;5.07;;;22.90;1.00;;;;;;5034158;28;20029;-74
2021/06/19 02:52:46;;;;;;;8.43;4.13;;;22.80;99.90;;;;;;5033782;28;20045;-74
2021/06/19 02:55:15;;;;;;;15.70;4.15;;;22.80;99.90;;;;;;5033817;28;20079;-73
2021/06/19 02:57:41;;;;;;;12.80;4.20;;;22.60;1.00;;;;;;5033778;28;20087;-73
2021/06/19 03:00:09;;;;;;;10.77;4.70;;;22.60;35.20;;;;;;5033671;28;20398;-74
2021/06/19 03:02:35;;;;;;;8.30;4.10;;;22.60;94.00;;;;;;5032480;28;20401;-73
2021/06/19 03:05:01;;;;;;;9.63;4.78;;;22.60;99.90;;;;;;5033573;28;20096;-73
2021/06/19 03:07:26;;;;;;;8.80;4.40;;;22.60;99.90;;;;;;5032585;28;20025;-74
2021/06/19 03:09:53;;;;;;;11.98;4.45;;;22.60;99.90;;;;;;5033420;28;20052;-73
2021/06/19 03:12:18;;;;;;;12.70;5.50;;;22.70;99.90;;;;;;5033305;28;20064;-73
2021/06/19 03:14:44;;;;;;;18.98;5.00;;;22.70;99.90;;;;;;5033369;28;20030;-74
2021/06/19 03:17:11;;;;;;;10.55;3.92;;;22.70;99.90;;;;;;5033088;28;20034;-73
2021/06/19 03:19:38;;;;;;;16.10;5.75;;;22.70;99.90;;;;;;5033468;28;20030;-73
2021/06/19 03:22:05;;;;;;;12.95;4.85;;;22.70;99.90;;;;;;5032755;28;20020;-73
2021/06/19 03:24:36;;;;;;;11.25;5.30;;;22.70;99.90;;;;;;5031567;28;20026;-73
2021/06/19 03:27:01;;;;;;;10.32;5.30;;;22.60;1.00;;;;;;5033152;28;20131;-73
2021/06/19 03:29:27;;;;;;;15.38;5.15;;;22.60;1.00;;;;;;5032994;28;20064;-76
2021/06/19 03:31:52;;;;;;;15.98;4.72;;;22.60;18.60;;;;;;5038623;28;20053;-74
2021/06/19 03:34:18;;;;;;;14.88;4.95;;;22.60;99.90;;;;;;5034550;28;20029;-73
2021/06/19 03:36:43;;;;;;;15.15;5.45;;;22.50;99.90;;;;;;5039776;28;20105;-73
2021/06/19 03:39:15;;;;;;;14.00;4.75;;;22.50;99.90;;;;;;5031814;28;20029;-73
2021/06/19 03:41:41;;;;;;;10.70;4.93;;;22.40;99.90;;;;;;5032797;28;20108;-73
2021/06/19 03:44:09;;;;;;;10.63;5.20;;;22.30;1.00;;;;;;5029040;28;20554;-73
2021/06/19 03:46:34;;;;;;;10.27;4.57;;;22.30;1.00;;;;;;5032898;28;20025;-74
2021/06/19 03:49:00;;;;;;;9.50;4.57;;;22.20;1.00;;;;;;5032359;28;20029;-74
2021/06/19 03:51:25;;;;;;;11.05;5.25;;;22.20;53.60;;;;;;5032713;28;20108;-73
2021/06/19 03:53:51;;;;;;;13.80;4.70;;;22.20;79.90;;;;;;5032500;28;20025;-72
2021/06/19 03:56:17;;;;;;;11.55;5.43;;;22.20;99.90;;;;;;5032524;28;20452;-72
2021/06/19 03:58:42;;;;;;;13.15;5.75;;;22.20;99.90;;;;;;5032440;28;20477;-72
2021/06/19 04:01:09;;;;;;;12.90;5.55;;;22.30;99.90;;;;;;5032172;28;20021;-73
2021/06/19 04:03:34;;;;;;;17.10;5.63;;;22.30;99.90;;;;;;5032785;28;20022;-73
2021/06/19 04:06:00;;;;;;;24.65;6.10;;;22.40;99.90;;;;;;5032840;28;20067;-73
2021/06/19 04:08:25;;;;;;;13.13;5.20;;;22.40;99.90;;;;;;5034855;28;20114;-73
2021/06/19 04:10:51;;;;;;;12.68;4.97;;;22.40;99.90;;;;;;5035356;28;20033;-73
2021/06/19 04:13:17;;;;;;;12.90;5.95;;;22.50;99.90;;;;;;5035394;28;20388;-73
2021/06/19 04:15:42;;;;;;;11.98;5.45;;;22.60;95.10;;;;;;5035159;28;20029;-74
2021/06/19 04:18:08;;;;;;;8.85;5.45;;;22.60;99.90;;;;;;5033635;28;20033;-72
2021/06/19 04:20:33;;;;;;;11.60;5.10;;;22.60;97.60;;;;;;5031537;28;20412;-73
2021/06/19 04:22:59;;;;;;;9.90;5.20;;;22.60;99.90;;;;;;5028545;28;20021;-73
2021/06/19 04:25:25;;;;;;;14.35;5.00;;;22.60;99.90;;;;;;5045513;28;20045;-73
2021/06/19 04:27:53;;;;;;;10.25;4.18;;;22.50;99.90;;;;;;5048004;28;20025;-72
2021/06/19 04:30:21;;;;;;;13.70;6.25;;;22.50;99.90;;;;;;5046063;28;20056;-73
2021/06/19 04:32:47;;;;;;;10.27;4.57;;;22.50;99.90;;;;;;5044459;28;20476;-71
2021/06/19 04:35:14;;;;;;;14.90;5.07;;;22.40;99.90;;;;;;5039426;28;20038;-73
2021/06/19 04:37:40;;;;;;;10.45;5.57;;;22.40;99.90;;;;;;5033074;28;20034;-73
2021/06/19 04:42:36;;;;;;;14.25;5.68;;;22.50;99.90;;;;;;5033175;28;20445;-73
2021/06/19 04:45:07;;;;;;;12.13;5.53;;;22.60;99.90;;;;;;5032071;28;20504;-73
2021/06/19 04:47:34;;;;;;;10.25;5.50;;;22.70;99.90;;;;;;5033546;28;20048;-74
2021/06/19 04:50:00;;;;;;;11.25;5.00;;;22.90;99.90;;;;;;5033584;28;20469;-74
2021/06/19 04:52:30;;;;;;;11.43;5.18;;;23.30;74.80;;;;;;5032193;28;20033;-74
2021/06/19 04:54:56;;;;;;;15.07;4.80;;;23.90;99.90;;;;;;5033238;28;20025;-74
2021/06/19 04:57:22;;;;;;;12.02;5.60;;;24.20;99.90;;;;;;5032278;28;20029;-74
2021/06/19 04:59:48;;;;;;;10.35;4.78;;;24.40;1.00;;;;;;5033759;28;20018;-74
2021/06/19 05:02:13;;;;;;;11.07;4.75;;;24.50;99.90;;;;;;5033202;28;20504;-74
2021/06/19 05:04:39;;;;;;;10.60;4.85;;;24.80;99.90;;;;;;5033301;28;20028;-74
2021/06/19 05:07:04;;;;;;;11.75;5.47;;;25.10;1.00;;;;;;5032193;28;20017;-74
2021/06/19 05:09:30;;;;;;;11.95;4.70;;;25.50;99.90;;;;;;5032493;28;20026;-74
2021/06/19 05:11:56;;;;;;;11.95;4.72;;;25.80;1.00;;;;;;5031253;28;20014;-74
2021/06/19 05:14:21;;;;;;;14.73;4.63;;;26.20;99.90;;;;;;5031788;28;20026;-74
2021/06/19 05:16:47;;;;;;;8.27;4.93;;;26.50;1.00;;;;;;5032315;28;20392;-74
2021/06/19 05:19:13;;;;;;;10.57;4.85;;;26.50;99.90;;;;;;5032146;28;20280;-74
2021/06/19 05:21:42;;;;;;;7.07;4.32;;;26.50;1.00;;;;;;5029268;28;20071;-75
2021/06/19 05:24:08;;;;;;;14.13;4.90;;;27.00;1.00;;;;;;5035357;28;20029;-73
2021/06/19 05:26:34;;;;;;;20.67;5.18;;;27.10;99.90;;;;;;5034283;28;20091;-74
2021/06/19 05:29:00;;;;;;;25.40;4.47;;;27.50;1.00;;;;;;5035312;28;20104;-74
2021/06/19 05:31:26;;;;;;;11.90;4.93;;;27.70;99.90;;;;;;5040280;28;20057;-74
2021/06/19 05:33:52;;;;;;;8.02;3.90;;;27.70;99.90;;;;;;5038829;28;20044;-75
2021/06/19 05:36:18;;;;;;;16.92;5.97;;;27.70;84.10;;;;;;5036282;28;20029;-74
2021/06/19 05:38:43;;;;;;;7.43;4.32;;;28.00;17.00;;;;;;5037342;28;20489;-75
2021/06/19 05:41:09;;;;;;;8.35;3.65;;;27.80;1.00;;;;;;5037853;28;20033;-74
2021/06/19 05:43:35;;;;;;;10.55;4.18;;;27.80;1.00;;;;;;5037051;28;20034;-75
2021/06/19 05:46:01;;;;;;;9.30;4.68;;;27.90;1.00;;;;;;5038129;28;20018;-74
2021/06/19 05:48:27;;;;;;;11.13;4.10;;;28.10;1.00;;;;;;5037528;28;20033;-75
2021/06/19 05:50:53;;;;;;;10.05;4.80;;;28.00;1.00;;;;;;5038993;28;20098;-74
2021/06/19 05:53:18;;;;;;;11.00;4.10;;;27.60;1.00;;;;;;5035920;28;20696;-73
2021/06/19 05:55:44;;;;;;;13.30;4.78;;;27.70;1.00;;;;;;5035538;28;20481;-74
2021/06/19 05:58:10;;;;;;;8.27;4.47;;;27.80;1.00;;;;;;5035957;28;20098;-74
2021/06/19 06:00:36;;;;;;;9.80;4.30;;;27.80;1.00;;;;;;5034423;28;20052;-75
2021/06/19 06:03:02;;;;;;;14.30;4.25;;;28.10;1.00;;;;;;5034609;28;20037;-75
2021/06/19 06:05:28;;;;;;;13.43;5.35;;;28.20;1.00;;;;;;5035772;28;20018;-73
2021/06/19 06:07:55;;;;;;;10.07;5.15;;;28.60;1.00;;;;;;5035152;28;20022;-74
2021/06/19 06:10:21;;;;;;;10.57;4.22;;;28.40;1.00;;;;;;5035823;28;20029;-75
2021/06/19 06:12:46;;;;;;;17.17;4.72;;;28.60;99.90;;;;;;5033924;28;20040;-74
2021/06/19 06:15:12;;;;;;;8.82;4.70;;;29.10;99.90;;;;;;5033439;28;20025;-73
2021/06/19 06:17:38;;;;;;;11.30;4.22;;;29.10;99.90;;;;;;5035018;28;20083;-73
2021/06/19 06:20:06;;;;;;;8.82;3.97;;;29.00;99.90;;;;;;5028512;28;20025;-74
2021/06/19 06:22:32;;;;;;;12.02;4.55;;;29.10;99.90;;;;;;5035896;28;20021;-74
2021/06/19 06:24:57;;;;;;;12.13;4.18;;;29.20;99.90;;;;;;5034615;28;20029;-74
2021/06/19 06:27:23;;;;;;;10.77;4.05;;;30.20;99.90;;;;;;5034945;28;20037;-73
2021/06/19 06:29:49;;;;;;;10.23;4.18;;;30.40;99.90;;;;;;5034274;28;20517;-75
2021/06/19 06:32:14;;;;;;;10.85;4.47;;;29.80;99.90;;;;;;5035048;28;20501;-75
2021/06/19 06:34:40;;;;;;;6.82;4.55;;;28.50;99.90;;;;;;5034694;28;20454;-75
2021/06/19 06:37:07;;;;;;;8.90;4.32;;;27.70;99.90;;;;;;5034598;28;20112;-75
2021/06/19 06:39:34;;;;;;;8.15;4.30;;;27.30;99.90;;;;;;5034795;28;20350;-76
2021/06/19 06:42:00;;;;;;;7.55;4.55;;;27.40;99.90;;;;;;5034063;28;20439;-74
2021/06/19 06:44:29;;;;;;;8.70;3.88;;;27.50;99.90;;;;;;5034824;28;20075;-75
2021/06/19 06:46:55;;;;;;;6.93;4.03;;;27.30;99.90;;;;;;5034635;28;20099;-75
2021/06/19 06:49:21;;;;;;;6.40;4.20;;;26.90;99.90;;;;;;5049501;28;20033;-74
2021/06/19 06:51:46;;;;;;;6.20;3.38;;;26.90;99.90;;;;;;5034396;28;20034;-75
2021/06/19 06:54:12;;;;;;;8.27;4.32;;;27.30;99.90;;;;;;5034428;28;20026;-76
2021/06/19 06:56:37;;;;;;;11.00;4.93;;;27.80;99.90;;;;;;5034403;28;20021;-74
2021/06/19 06:59:03;;;;;;;4.75;3.88;;;27.60;99.90;;;;;;5033906;28;20481;-74
2021/06/19 07:01:29;;;;;;;6.57;4.28;;;27.60;99.90;;;;;;5033894;28;20061;-75
2021/06/19 07:03:56;;;;;;;9.32;4.13;;;27.60;99.90;;;;;;5033484;28;20025;-76
2021/06/19 07:06:22;;;;;;;8.07;3.60;;;27.40;99.90;;;;;;5035428;28;20048;-74
2021/06/19 07:08:48;;;;;;;13.05;3.88;;;27.50;99.90;;;;;;5034198;28;20023;-74
2021/06/19 07:11:14;;;;;;;9.25;3.75;;;27.70;99.90;;;;;;5034110;28;20040;-74
2021/06/19 07:13:39;;;;;;;11.40;4.50;;;27.40;99.90;;;;;;5033744;28;20039;-74
2021/06/19 07:16:06;;;;;;;10.25;3.80;;;27.10;99.90;;;;;;5034448;28;20104;-73
2021/06/19 07:18:32;;;;;;;5.22;3.97;;;27.10;99.90;;;;;;5033658;28;20018;-74
2021/06/19 07:20:58;;;;;;;5.25;3.55;;;27.20;99.90;;;;;;5033244;28;20432;-73
2021/06/19 07:23:25;;;;;;;8.85;3.97;;;27.40;99.90;;;;;;5032801;28;20021;-73
2021/06/19 07:25:52;;;;;;;10.50;3.95;;;27.80;99.90;;;;;;5032150;28;20025;-74
2021/06/19 07:28:17;;;;;;;7.95;4.70;;;28.00;99.90;;;;;;5034673;28;20452;-76
2021/06/19 07:30:43;;;;;;;9.02;3.63;;;27.60;99.90;;;;;;5033085;28;20033;-77
2021/06/19 07:33:08;;;;;;;7.38;4.30;;;27.80;99.90;;;;;;5035519;28;20091;-76
2021/06/19 07:35:34;;;;;;;9.73;3.88;;;27.80;99.90;;;;;;5034048;28;20493;-76
2021/06/19 07:38:00;;;;;;;8.90;4.55;;;27.80;99.90;;;;;;5032727;28;20029;-76
2021/06/19 07:40:26;;;;;;;9.15;4.30;;;27.80;99.90;;;;;;5032703;28;20104;-76
2021/06/19 07:42:52;;;;;;;8.25;4.40;;;27.90;99.90;;;;;;5033780;28;20026;-75
2021/06/19 07:45:18;;;;;;;7.22;4.15;;;28.40;99.90;;;;;;5033826;28;20355;-77
2021/06/19 07:47:43;;;;;;;8.10;5.28;;;28.70;99.90;;;;;;5034045;28;20037;-76
2021/06/19 07:50:09;;;;;;;8.30;4.53;;;28.70;99.90;;;;;;5033775;28;20036;-76
2021/06/19 07:52:35;;;;;;;8.68;4.00;;;29.00;99.90;;;;;;5035585;28;20029;-77
2021/06/19 07:55:01;;;;;;;7.60;3.65;;;29.10;99.90;;;;;;5030290;28;20033;-75
2021/06/19 07:57:26;;;;;;;11.38;3.85;;;28.80;99.90;;;;;;5032263;28;20116;-75
2021/06/19 07:59:52;;;;;;;9.68;4.13;;;28.50;99.90;;;;;;5024859;28;20093;-74
2021/06/19 08:02:18;;;;;;;8.43;4.70;;;28.30;99.90;;;;;;5031961;28;20037;-75
2021/06/19 08:04:44;;;;;;;10.40;4.10;;;28.50;99.90;;;;;;5033361;28;20022;-76
2021/06/19 08:07:10;;;;;;;10.23;4.40;;;28.70;99.90;;;;;;5032137;28;20034;-76
2021/06/19 08:09:36;;;;;;;10.13;5.32;;;28.90;99.90;;;;;;5034130;28;20017;-75
2021/06/19 08:12:02;;;;;;;6.07;4.20;;;29.10;99.90;;;;;;5035276;28;20032;-76
2021/06/19 08:14:28;;;;;;;11.25;4.72;;;29.00;99.90;;;;;;5031213;28;20079;-75
2021/06/19 08:16:56;;;;;;;11.43;5.00;;;29.30;99.90;;;;;;5032052;28;20029;-75
2021/06/19 08:19:23;;;;;;;7.68;4.10;;;29.30;99.90;;;;;;5040681;28;20385;-73
2021/06/19 08:21:49;;;;;;;6.70;4.72;;;29.30;99.90;;;;;;5048232;28;20022;-77
2021/06/19 08:24:14;;;;;;;11.02;4.47;;;29.40;99.90;;;;;;5047009;28;20029;-77
2021/06/19 08:26:40;;;;;;;17.02;4.60;;;29.30;99.90;;;;;;5037966;28;20370;-77
2021/06/19 08:29:07;;;;;;;10.75;4.90;;;29.40;99.90;;;;;;5033792;28;20025;-77
2021/06/19 08:31:37;;;;;;;8.15;4.22;;;29.20;99.90;;;;;;5034127;28;20418;-77
2021/06/19 08:34:04;;;;;;;8.05;5.38;;;29.40;99.90;;;;;;5035091;28;20025;-77
2021/06/19 08:36:31;;;;;;;10.38;4.40;;;29.30;99.90;;;;;;5033545;28;20037;-77
2021/06/19 08:38:56;;;;;;;9.77;4.50;;;29.70;99.90;;;;;;5034062;28;20041;-77
2021/06/19 08:41:22;;;;;;;11.23;4.25;;;29.50;99.90;;;;;;5033867;28;20017;-77
2021/06/19 08:43:48;;;;;;;10.38;4.95;;;29.90;99.90;;;;;;5033847;28;20014;-77
2021/06/19 08:46:17;;;;;;;9.40;6.20;;;30.10;99.90;;;;;;5031817;28;20026;-77
2021/06/19 08:48:47;;;;;;;10.32;4.53;;;29.90;99.90;;;;;;5038171;28;20026;-78
2021/06/19 08:51:13;;;;;;;6.50;3.80;;;30.00;99.90;;;;;;5038518;28;20029;-78
2021/06/19 08:53:38;;;;;;;7.13;4.70;;;29.80;99.90;;;;;;5038265;28;20071;-78
2021/06/19 08:56:04;;;;;;;11.02;4.90;;;30.30;99.90;;;;;;5033383;28;20133;-76
2021/06/19 08:58:30;;;;;;;12.60;4.88;;;30.40;99.90;;;;;;5018240;28;20030;-76
2021/06/19 09:00:56;;;;;;;9.02;4.68;;;30.40;99.90;;;;;;5029405;28;20028;-77
2021/06/19 09:03:24;;;;;;;8.68;4.57;;;30.40;99.90;;;;;;5038336;28;20024;-76
2021/06/19 09:05:52;;;;;;;10.25;5.10;;;30.10;99.90;;;;;;5038123;28;20036;-76
2021/06/19 09:08:19;;;;;;;12.65;5.03;;;30.40;99.90;;;;;;5039413;28;20056;-79
2021/06/19 09:10:46;;;;;;;13.10;5.03;;;30.10;99.90;;;;;;5038192;28;20116;-77
2021/06/19 09:13:20;;;;;;;7.72;4.88;;;30.30;99.90;;;;;;5037743;28;20025;-76
2021/06/19 09:15:48;;;;;;;13.60;4.80;;;29.90;99.90;;;;;;5037201;28;20044;-76
2021/06/19 09:18:23;;;;;;;7.93;4.95;;;30.40;99.90;;;;;;5037903;28;20079;-76
2021/06/19 09:21:00;;;;;;;10.13;5.13;;;30.20;99.90;;;;;;5038833;28;20022;-77
2021/06/19 09:23:35;;;;;;;8.20;4.05;;;30.50;99.90;;;;;;5039453;28;20504;-76
2021/06/19 09:26:17;;;;;;;9.52;4.70;;;30.80;99.90;;;;;;5038074;28;20033;-77
2021/06/19 09:29:10;;;;;;;9.02;4.75;;;31.00;99.90;;;;;;5041827;28;20021;-76
2021/06/19 09:31:44;;;;;;;9.07;4.13;;;30.90;99.90;;;;;;5042210;28;20037;-78
2021/06/19 09:34:14;;;;;;;8.65;5.07;;;30.60;99.90;;;;;;5040334;28;20030;-77
2021/06/19 09:36:46;;;;;;;9.68;4.55;;;31.00;99.90;;;;;;5040499;28;20425;-77
2021/06/19 09:39:14;;;;;;;6.63;4.78;;;30.70;99.90;;;;;;5040885;28;20030;-77
2021/06/19 09:41:43;;;;;;;6.63;5.18;;;30.60;99.90;;;;;;5040023;28;20164;-76
2021/06/19 09:44:08;;;;;;;10.63;4.28;;;31.00;99.90;;;;;;5037506;28;20470;-76
2021/06/19 09:46:34;;;;;;;7.63;4.07;;;31.20;99.90;;;;;;5043144;28;20036;-77
2021/06/19 09:49:17;;;;;;;8.13;5.20;;;31.40;99.90;;;;;;5040445;28;20565;-74
2021/06/19 09:51:48;;;;;;;9.35;4.10;;;31.20;99.90;;;;;;5040338;28;20025;-76
2021/06/19 09:54:14;;;;;;;10.85;4.78;;;31.10;99.90;;;;;;5039501;28;20416;-77
2021/06/19 09:56:59;;;;;;;10.52;4.15;;;30.90;99.90;;;;;;5038204;28;20116;-76
2021/06/19 09:59:27;;;;;;;12.27;5.90;;;31.00;99.90;;;;;;5039653;28;20036;-76
2021/06/19 10:01:54;;;;;;;7.50;4.18;;;31.00;99.90;;;;;;5040786;28;20029;-76
2021/06/19 10:04:22;;;;;;;19.35;5.28;;;31.20;99.90;;;;;;5037356;28;20029;-76
2021/06/19 10:06:49;;;;;;;6.47;4.57;;;31.40;99.90;;;;;;5037034;28;20564;-76
2021/06/19 10:09:15;;;;;;;9.77;4.63;;;31.60;99.90;;;;;;5037065;28;20026;-75
2021/06/19 10:11:42;;;;;;;11.82;5.40;;;31.40;99.90;;;;;;5038406;28;20036;-76
2021/06/19 10:14:17;;;;;;;13.60;5.38;;;31.00;99.90;;;;;;5040111;28;20385;-77
2021/06/19 10:16:48;;;;;;;6.55;5.05;;;31.00;99.90;;;;;;5037607;28;20053;-78
2021/06/19 10:19:18;;;;;;;12.15;5.30;;;31.00;99.90;;;;;;5042260;28;20117;-76
2021/06/19 10:21:44;;;;;;;11.63;5.70;;;31.20;99.90;;;;;;5044754;28;20032;-77
2021/06/19 10:24:11;;;;;;;11.18;5.72;;;31.20;99.90;;;;;;5046979;28;20030;-76
2021/06/19 10:26:38;;;;;;;6.95;4.97;;;31.80;99.90;;;;;;5047864;28;20025;-76
2021/06/19 10:29:05;;;;;;;9.40;4.97;;;31.90;99.90;;;;;;5046379;28;20055;-76
2021/06/19 10:31:42;;;;;;;8.48;5.22;;;31.80;99.90;;;;;;5039732;28;20467;-76
2021/06/19 10:34:38;;;;;;;18.58;5.50;;;31.80;99.90;;;;;;5038461;28;20018;-76
2021/06/19 10:37:09;;;;;;;13.13;5.28;;;31.60;99.90;;;;;;5035637;28;20040;-75
2021/06/19 10:39:44;;;;;;;9.10;5.30;;;31.60;99.90;;;;;;5037578;28;20350;-76
2021/06/19 10:42:33;;;;;;;14.18;5.65;;;31.70;99.90;;;;;;5037978;28;20023;-76
2021/06/19 10:45:26;;;;;;;7.82;5.15;;;31.60;99.90;;;;;;5038668;28;20027;-77
2021/06/19 10:48:06;;;;;;;10.05;5.43;;;31.40;99.90;;;;;;5038914;28;20440;-76
2021/06/19 10:50:34;;;;;;;11.38;5.30;;;31.90;99.90;;;;;;5040227;28;20130;-76
2021/06/19 10:53:13;;;;;;;10.93;5.80;;;32.00;99.90;;;;;;5045819;28;20093;-76
2021/06/19 10:55:44;;;;;;;8.73;4.80;;;31.70;99.90;;;;;;5038354;28;20075;-75
2021/06/19 10:58:30;;;;;;;9.82;3.95;;;32.00;99.90;;;;;;5038643;28;20034;-76
2021/06/19 11:00:57;;;;;;;9.15;4.43;;;32.00;99.90;;;;;;5038139;28;20037;-76
2021/06/19 11:03:47;;;;;;;13.13;4.72;;;32.10;99.90;;;;;;5037476;28;20515;-78
2021/06/19 11:06:36;;;;;;;9.75;3.63;;;32.10;99.90;;;;;;5036618;28;20013;-77
2021/06/19 11:09:18;;;;;;;11.13;4.10;;;32.20;99.90;;;;;;5036477;28;20037;-76
2021/06/19 11:12:02;;;;;;;7.18;3.72;;;32.00;99.90;;;;;;5035806;28;20025;-77
2021/06/19 11:14:43;;;;;;;9.05;3.85;;;31.80;99.90;;;;;;5036815;28;20033;-76
2021/06/19 11:17:32;;;;;;;10.73;4.38;;;31.90;99.90;;;;;;5035723;28;20056;-76
2021/06/19 11:20:02;;;;;;;12.02;4.05;;;32.00;99.90;;;;;;5029768;28;20048;-77
2021/06/19 11:22:40;;;;;;;;;;;32.00;99.90;;;;;;5036044;28;20030;-79
2021/06/19 11:28:08;;;;;;;10.25;3.67;;;32.00;99.90;;;;;;5036220;28;20133;-79
2021/06/19 11:30:33;;;;;;;11.13;4.85;;;32.10;99.90;;;;;;5050442;28;20041;-75
2021/06/19 11:33:19;;;;;;;7.78;4.75;;;32.20;99.90;;;;;;5052648;28;20195;-76
2021/06/19 11:36:12;;;;;;;11.32;3.70;;;32.40;99.90;;;;;;5049993;28;20048;-76
2021/06/19 11:38:44;;;;;;;9.63;3.70;;;32.60;99.90;;;;;;5050360;28;20030;-75
2021/06/19 11:41:15;;;;;;;13.77;4.32;;;32.70;99.90;;;;;;5046992;28;20107;-76
2021/06/19 11:43:43;;;;;;;8.68;3.67;;;32.50;99.90;;;;;;5039996;28;20055;-77
2021/06/19 11:46:09;;;;;;;7.47;3.83;;;32.60;99.90;;;;;;5040324;28;20071;-75
2021/06/19 11:48:52;;;;;;;15.07;5.20;;;32.70;99.90;;;;;;5036776;28;20026;-76
2021/06/19 11:51:21;;;;;;;25.15;5.10;;;32.70;99.90;;;;;;5037992;28;20030;-75
2021/06/19 11:53:47;;;;;;;7.95;4.50;;;32.80;99.90;;;;;;5037315;28;20024;-76
2021/06/19 11:56:14;;;;;;;9.43;4.18;;;32.70;99.90;;;;;;5036392;28;20026;-77
2021/06/19 11:58:46;;;;;;;9.63;4.63;;;32.60;99.90;;;;;;5035820;28;20183;-76
2021/06/19 12:01:13;;;;;;;9.25;3.97;;;32.70;99.90;;;;;;5037059;28;20041;-76
2021/06/19 12:03:40;;;;;;;11.45;4.85;;;32.70;99.90;;;;;;5039163;28;20025;-77
2021/06/19 12:06:05;;;;;;;13.30;4.30;;;32.40;99.90;;;;;;5036143;28;20100;-76
2021/06/19 12:08:32;;;;;;;9.85;4.35;;;32.90;99.90;;;;;;5036317;28;20056;-76
2021/06/19 12:10:57;;;;;;;7.43;3.72;;;32.90;99.90;;;;;;5038152;28;20030;-76
2021/06/19 12:13:37;;;;;;;12.20;4.35;;;33.30;99.90;;;;;;5034254;28;20025;-77
2021/06/19 12:16:06;;;;;;;11.90;4.68;;;33.30;99.90;;;;;;5035546;28;20477;-77
2021/06/19 12:18:32;;;;;;;13.73;4.30;;;32.90;99.90;;;;;;5033748;28;20045;-77
2021/06/19 12:21:07;;;;;;;11.50;4.63;;;32.80;99.90;;;;;;5037762;28;20022;-76
2021/06/19 12:23:44;;;;;;;10.40;4.25;;;33.20;99.90;;;;;;5037008;28;20480;-76
2021/06/19 12:26:11;;;;;;;11.23;4.32;;;33.10;99.90;;;;;;5035179;28;20025;-76
2021/06/19 12:28:41;;;;;;;7.57;4.40;;;34.10;99.90;;;;;;5033555;28;20033;-76
2021/06/19 12:31:06;;;;;;;9.87;4.00;;;34.40;99.90;;;;;;5034890;28;20029;-76
2021/06/19 12:33:33;;;;;;;9.50;4.53;;;34.50;99.90;;;;;;5034949;28;20026;-77
2021/06/19 12:36:01;;;;;;;15.07;4.07;;;34.50;99.90;;;;;;5034666;28;20030;-77
2021/06/19 12:38:28;;;;;;;11.32;4.15;;;34.40;99.90;;;;;;5034438;28;20045;-75
2021/06/19 12:40:55;;;;;;;6.32;3.70;;;34.40;99.90;;;;;;5035845;28;20018;-76
2021/06/19 12:43:21;;;;;;;7.88;3.60;;;34.30;99.90;;;;;;5035263;28;20477;-77
2021/06/19 12:45:49;;;;;;;12.18;4.45;;;34.20;99.90;;;;;;5034964;28;20113;-77
2021/06/19 12:48:39;;;;;;;8.13;3.70;;;34.40;99.90;;;;;;5035492;28;20022;-77
2021/06/19 12:51:07;;;;;;;6.80;3.17;;;34.20;99.90;;;;;;5035025;28;20028;-77
2021/06/19 12:53:34;;;;;;;9.23;3.17;;;33.60;99.90;;;;;;5033488;28;20279;-76